sensor_id;sensor_type;location;lat;lon;timestamp;P1;durP1;ratioP1;P2;durP2;ratioP2
5137;SDS011;53959;53.626;11.410;2023-02-13T00:00:42;22.47;;;12.30;;
5137;SDS011;53959;53.626;11.410;2023-02-13T00:03:08;20.57;;;11.50;;
5137;SDS011;53959;53.626;11.410;2023-02-13T00:05:33;22.13;;;10.90;;
5137;SDS011;53959;53.626;11.410;2023-02-13T00:07:59;19.80;;;11.33;;
5137;SDS011;53959;53.626;11.410;2023-02-13T00:10:24;25.60;;;11.73;;
5137;SDS011;53959;53.626;11.410;2023-02-13T00:12:49;19.40;;;10.80;;
5137;SDS011;53959;53.626;11.410;2023-02-13T00:15:15;21.70;;;10.73;;
5137;SDS011;53959;53.626;11.410;2023-02-13T00:17:40;21.20;;;10.77;;
5137;SDS011;53959;53.626;11.410;2023-02-13T00:20:06;16.23;;;10.50;;
5137;SDS011;53959;53.626;11.410;2023-02-13T00:22:35;14.63;;;9.83;;
5137;SDS011;53959;53.626;11.410;2023-02-13T00:25:02;15.47;;;10.00;;
5137;SDS011;53959;53.626;11.410;2023-02-13T00:27:28;15.40;;;9.17;;
5137;SDS011;53959;53.626;11.410;2023-02-13T00:29:53;25.13;;;9.87;;
5137;SDS011;53959;53.626;11.410;2023-02-13T00:32:19;20.07;;;9.57;;
5137;SDS011;53959;53.626;11.410;2023-02-13T00:34:44;11.87;;;8.83;;
5137;SDS011;53959;53.626;11.410;2023-02-13T00:37:09;12.63;;;8.70;;
5137;SDS011;53959;53.626;11.410;2023-02-13T00:39:35;12.30;;;8.50;;
5137;SDS011;53959;53.626;11.410;2023-02-13T00:42:00;11.53;;;7.80;;
5137;SDS011;53959;53.626;11.410;2023-02-13T00:44:25;8.53;;;6.87;;
5137;SDS011;53959;53.626;11.410;2023-02-13T00:46:52;10.27;;;7.10;;
5137;SDS011;53959;53.626;11.410;2023-02-13T00:49:17;10.67;;;6.73;;
5137;SDS011;53959;53.626;11.410;2023-02-13T00:51:43;10.00;;;6.87;;
5137;SDS011;53959;53.626;11.410;2023-02-13T00:54:08;13.40;;;7.87;;
5137;SDS011;53959;53.626;11.410;2023-02-13T00:56:34;10.80;;;8.13;;
5137;SDS011;53959;53.626;11.410;2023-02-13T00:59:00;11.60;;;8.10;;
5137;SDS011;53959;53.626;11.410;2023-02-13T01:01:25;15.37;;;9.50;;
5137;SDS011;53959;53.626;11.410;2023-02-13T01:03:51;20.30;;;9.50;;
5137;SDS011;53959;53.626;11.410;2023-02-13T01:06:16;13.20;;;8.80;;
5137;SDS011;53959;53.626;11.410;2023-02-13T01:08:42;12.60;;;9.13;;
5137;SDS011;53959;53.626;11.410;2023-02-13T01:11:07;12.77;;;8.50;;
5137;SDS011;53959;53.626;11.410;2023-02-13T01:13:34;17.70;;;9.37;;
5137;SDS011;53959;53.626;11.410;2023-02-13T01:16:00;16.10;;;9.23;;
5137;SDS011;53959;53.626;11.410;2023-02-13T01:18:25;13.93;;;9.20;;
5137;SDS011;53959;53.626;11.410;2023-02-13T01:20:54;18.00;;;10.40;;
5137;SDS011;53959;53.626;11.410;2023-02-13T01:23:24;16.27;;;9.70;;
5137;SDS011;53959;53.626;11.410;2023-02-13T01:25:50;17.87;;;9.70;;
5137;SDS011;53959;53.626;11.410;2023-02-13T01:28:17;16.63;;;9.50;;
5137;SDS011;53959;53.626;11.410;2023-02-13T01:30:42;16.20;;;9.10;;
5137;SDS011;53959;53.626;11.410;2023-02-13T01:33:11;15.80;;;9.60;;
5137;SDS011;53959;53.626;11.410;2023-02-13T01:35:39;14.57;;;9.77;;
5137;SDS011;53959;53.626;11.410;2023-02-13T01:38:04;13.67;;;9.17;;
5137;SDS011;53959;53.626;11.410;2023-02-13T01:40:30;13.30;;;8.33;;
5137;SDS011;53959;53.626;11.410;2023-02-13T01:42:56;18.23;;;9.37;;
5137;SDS011;53959;53.626;11.410;2023-02-13T01:47:51;19.47;;;9.87;;
5137;SDS011;53959;53.626;11.410;2023-02-13T01:50:31;17.30;;;9.43;;
5137;SDS011;53959;53.626;11.410;2023-02-13T01:53:08;15.20;;;9.03;;
5137;SDS011;53959;53.626;11.410;2023-02-13T01:55:37;10.50;;;7.80;;
5137;SDS011;53959;53.626;11.410;2023-02-13T01:58:08;12.87;;;8.73;;
5137;SDS011;53959;53.626;11.410;2023-02-13T02:00:36;16.83;;;8.60;;
5137;SDS011;53959;53.626;11.410;2023-02-13T02:03:06;13.30;;;7.70;;
5137;SDS011;53959;53.626;11.410;2023-02-13T02:05:35;13.13;;;7.60;;
5137;SDS011;53959;53.626;11.410;2023-02-13T02:08:01;10.13;;;6.73;;
5137;SDS011;53959;53.626;11.410;2023-02-13T02:10:28;9.73;;;6.07;;
5137;SDS011;53959;53.626;11.410;2023-02-13T02:13:00;9.47;;;7.60;;
5137;SDS011;53959;53.626;11.410;2023-02-13T02:15:37;8.67;;;6.27;;
5137;SDS011;53959;53.626;11.410;2023-02-13T02:18:13;7.07;;;5.27;;
5137;SDS011;53959;53.626;11.410;2023-02-13T02:20:53;6.70;;;3.70;;
5137;SDS011;53959;53.626;11.410;2023-02-13T02:23:41;6.80;;;3.10;;
5137;SDS011;53959;53.626;11.410;2023-02-13T02:32:13;1.70;;;1.60;;
5137;SDS011;53959;53.626;11.410;2023-02-13T02:40:36;2.33;;;2.23;;
5137;SDS011;53959;53.626;11.410;2023-02-13T02:45:51;2.27;;;2.07;;
5137;SDS011;53959;53.626;11.410;2023-02-13T02:48:21;2.77;;;2.57;;
5137;SDS011;53959;53.626;11.410;2023-02-13T02:51:18;2.30;;;2.20;;
5137;SDS011;53959;53.626;11.410;2023-02-13T02:57:02;2.67;;;2.47;;
5137;SDS011;53959;53.626;11.410;2023-02-13T02:59:34;4.43;;;2.80;;
5137;SDS011;53959;53.626;11.410;2023-02-13T03:02:19;3.23;;;2.27;;
5137;SDS011;53959;53.626;11.410;2023-02-13T03:05:07;4.33;;;2.60;;
5137;SDS011;53959;53.626;11.410;2023-02-13T03:08:00;2.37;;;2.17;;
5137;SDS011;53959;53.626;11.410;2023-02-13T03:10:28;3.80;;;2.53;;
5137;SDS011;53959;53.626;11.410;2023-02-13T03:13:15;3.03;;;2.53;;
5137;SDS011;53959;53.626;11.410;2023-02-13T03:15:52;4.73;;;2.80;;
5137;SDS011;53959;53.626;11.410;2023-02-13T03:18:41;2.27;;;2.17;;
5137;SDS011;53959;53.626;11.410;2023-02-13T03:21:47;3.90;;;3.20;;
5137;SDS011;53959;53.626;11.410;2023-02-13T03:24:43;4.47;;;2.80;;
5137;SDS011;53959;53.626;11.410;2023-02-13T03:27:21;6.73;;;3.60;;
5137;SDS011;53959;53.626;11.410;2023-02-13T03:30:15;3.20;;;2.90;;
5137;SDS011;53959;53.626;11.410;2023-02-13T03:32:50;3.47;;;3.17;;
5137;SDS011;53959;53.626;11.410;2023-02-13T03:41:10;8.87;;;4.70;;
5137;SDS011;53959;53.626;11.410;2023-02-13T03:46:29;8.30;;;6.00;;
5137;SDS011;53959;53.626;11.410;2023-02-13T03:48:58;10.70;;;7.37;;
5137;SDS011;53959;53.626;11.410;2023-02-13T03:51:59;16.20;;;8.37;;
5137;SDS011;53959;53.626;11.410;2023-02-13T03:57:17;15.67;;;8.20;;
5137;SDS011;53959;53.626;11.410;2023-02-13T04:00:03;16.30;;;10.67;;
5137;SDS011;53959;53.626;11.410;2023-02-13T04:02:42;18.00;;;10.13;;
5137;SDS011;53959;53.626;11.410;2023-02-13T04:05:16;20.93;;;11.23;;
5137;SDS011;53959;53.626;11.410;2023-02-13T04:07:44;20.67;;;10.40;;
5137;SDS011;53959;53.626;11.410;2023-02-13T04:10:11;24.73;;;12.07;;
5137;SDS011;53959;53.626;11.410;2023-02-13T04:20:42;25.33;;;14.30;;
5137;SDS011;53959;53.626;11.410;2023-02-13T04:23:08;30.57;;;14.40;;
5137;SDS011;53959;53.626;11.410;2023-02-13T04:25:34;32.07;;;15.40;;
5137;SDS011;53959;53.626;11.410;2023-02-13T04:28:02;34.50;;;15.60;;
5137;SDS011;53959;53.626;11.410;2023-02-13T04:30:27;38.00;;;15.67;;
5137;SDS011;53959;53.626;11.410;2023-02-13T04:32:53;37.63;;;16.90;;
5137;SDS011;53959;53.626;11.410;2023-02-13T04:35:18;38.97;;;16.50;;
5137;SDS011;53959;53.626;11.410;2023-02-13T04:37:43;40.90;;;19.00;;
5137;SDS011;53959;53.626;11.410;2023-02-13T04:40:09;31.97;;;16.00;;
5137;SDS011;53959;53.626;11.410;2023-02-13T04:42:35;39.70;;;17.87;;
5137;SDS011;53959;53.626;11.410;2023-02-13T04:45:00;39.97;;;19.43;;
5137;SDS011;53959;53.626;11.410;2023-02-13T04:47:26;38.53;;;17.87;;
5137;SDS011;53959;53.626;11.410;2023-02-13T04:49:51;40.73;;;19.17;;
5137;SDS011;53959;53.626;11.410;2023-02-13T04:52:16;38.73;;;19.00;;
5137;SDS011;53959;53.626;11.410;2023-02-13T04:54:42;36.90;;;17.97;;
5137;SDS011;53959;53.626;11.410;2023-02-13T04:57:07;41.20;;;19.43;;
5137;SDS011;53959;53.626;11.410;2023-02-13T04:59:33;40.67;;;19.20;;
5137;SDS011;53959;53.626;11.410;2023-02-13T05:01:58;48.50;;;20.10;;
5137;SDS011;53959;53.626;11.410;2023-02-13T05:04:24;53.10;;;22.13;;
5137;SDS011;53959;53.626;11.410;2023-02-13T05:06:49;39.90;;;20.20;;
5137;SDS011;53959;53.626;11.410;2023-02-13T05:09:15;44.30;;;21.50;;
5137;SDS011;53959;53.626;11.410;2023-02-13T05:11:40;46.63;;;21.60;;
5137;SDS011;53959;53.626;11.410;2023-02-13T05:14:06;47.37;;;20.60;;
5137;SDS011;53959;53.626;11.410;2023-02-13T05:16:32;52.77;;;21.50;;
5137;SDS011;53959;53.626;11.410;2023-02-13T05:18:57;48.23;;;22.10;;
5137;SDS011;53959;53.626;11.410;2023-02-13T05:21:23;41.60;;;20.10;;
5137;SDS011;53959;53.626;11.410;2023-02-13T05:24:07;49.27;;;20.30;;
5137;SDS011;53959;53.626;11.410;2023-02-13T05:26:32;47.70;;;22.73;;
5137;SDS011;53959;53.626;11.410;2023-02-13T05:28:58;51.10;;;22.27;;
5137;SDS011;53959;53.626;11.410;2023-02-13T05:31:53;64.63;;;23.03;;
5137;SDS011;53959;53.626;11.410;2023-02-13T05:34:20;45.77;;;21.97;;
5137;SDS011;53959;53.626;11.410;2023-02-13T05:36:46;43.30;;;21.33;;
5137;SDS011;53959;53.626;11.410;2023-02-13T05:39:11;49.60;;;21.40;;
5137;SDS011;53959;53.626;11.410;2023-02-13T05:41:37;64.73;;;25.10;;
5137;SDS011;53959;53.626;11.410;2023-02-13T05:44:02;50.10;;;22.50;;
5137;SDS011;53959;53.626;11.410;2023-02-13T05:46:28;54.07;;;21.77;;
5137;SDS011;53959;53.626;11.410;2023-02-13T05:48:53;51.60;;;24.00;;
5137;SDS011;53959;53.626;11.410;2023-02-13T05:51:19;44.60;;;22.53;;
5137;SDS011;53959;53.626;11.410;2023-02-13T05:53:44;49.03;;;21.77;;
5137;SDS011;53959;53.626;11.410;2023-02-13T05:56:10;48.77;;;23.17;;
5137;SDS011;53959;53.626;11.410;2023-02-13T05:58:35;46.43;;;21.80;;
5137;SDS011;53959;53.626;11.410;2023-02-13T06:01:01;54.20;;;21.73;;
5137;SDS011;53959;53.626;11.410;2023-02-13T06:03:27;51.70;;;21.47;;
5137;SDS011;53959;53.626;11.410;2023-02-13T06:05:53;49.37;;;22.30;;
5137;SDS011;53959;53.626;11.410;2023-02-13T06:08:19;42.47;;;19.57;;
5137;SDS011;53959;53.626;11.410;2023-02-13T06:10:45;46.87;;;21.97;;
5137;SDS011;53959;53.626;11.410;2023-02-13T06:13:11;45.87;;;21.40;;
5137;SDS011;53959;53.626;11.410;2023-02-13T06:15:36;47.77;;;22.10;;
5137;SDS011;53959;53.626;11.410;2023-02-13T06:18:02;45.87;;;21.63;;
5137;SDS011;53959;53.626;11.410;2023-02-13T06:20:27;45.57;;;20.13;;
5137;SDS011;53959;53.626;11.410;2023-02-13T06:22:52;50.07;;;21.20;;
5137;SDS011;53959;53.626;11.410;2023-02-13T06:25:18;46.00;;;20.60;;
5137;SDS011;53959;53.626;11.410;2023-02-13T06:27:44;43.83;;;21.40;;
5137;SDS011;53959;53.626;11.410;2023-02-13T06:30:10;47.17;;;20.50;;
5137;SDS011;53959;53.626;11.410;2023-02-13T06:32:36;37.57;;;19.43;;
5137;SDS011;53959;53.626;11.410;2023-02-13T06:35:01;40.00;;;20.00;;
5137;SDS011;53959;53.626;11.410;2023-02-13T06:37:26;53.23;;;21.30;;
5137;SDS011;53959;53.626;11.410;2023-02-13T06:39:52;36.93;;;18.97;;
5137;SDS011;53959;53.626;11.410;2023-02-13T06:42:17;35.60;;;18.73;;
5137;SDS011;53959;53.626;11.410;2023-02-13T06:44:43;39.60;;;19.47;;
5137;SDS011;53959;53.626;11.410;2023-02-13T06:47:08;41.47;;;19.77;;
5137;SDS011;53959;53.626;11.410;2023-02-13T06:49:34;49.60;;;21.07;;
5137;SDS011;53959;53.626;11.410;2023-02-13T06:51:59;35.87;;;19.33;;
5137;SDS011;53959;53.626;11.410;2023-02-13T06:54:24;41.07;;;18.43;;
5137;SDS011;53959;53.626;11.410;2023-02-13T06:56:50;34.60;;;18.43;;
5137;SDS011;53959;53.626;11.410;2023-02-13T06:59:15;44.30;;;19.37;;
5137;SDS011;53959;53.626;11.410;2023-02-13T07:01:40;38.20;;;18.17;;
5137;SDS011;53959;53.626;11.410;2023-02-13T07:04:06;36.03;;;16.43;;
5137;SDS011;53959;53.626;11.410;2023-02-13T07:06:31;39.27;;;17.63;;
5137;SDS011;53959;53.626;11.410;2023-02-13T07:08:57;35.30;;;16.73;;
5137;SDS011;53959;53.626;11.410;2023-02-13T07:11:22;34.97;;;17.07;;
5137;SDS011;53959;53.626;11.410;2023-02-13T07:13:48;33.57;;;17.37;;
5137;SDS011;53959;53.626;11.410;2023-02-13T07:16:14;32.40;;;16.10;;
5137;SDS011;53959;53.626;11.410;2023-02-13T07:18:39;37.83;;;15.10;;
5137;SDS011;53959;53.626;11.410;2023-02-13T07:21:05;37.23;;;17.43;;
5137;SDS011;53959;53.626;11.410;2023-02-13T07:23:30;28.90;;;15.90;;
5137;SDS011;53959;53.626;11.410;2023-02-13T07:25:57;27.70;;;14.30;;
5137;SDS011;53959;53.626;11.410;2023-02-13T07:28:24;26.40;;;14.83;;
5137;SDS011;53959;53.626;11.410;2023-02-13T07:30:49;26.43;;;15.17;;
5137;SDS011;53959;53.626;11.410;2023-02-13T07:33:15;28.67;;;14.80;;
5137;SDS011;53959;53.626;11.410;2023-02-13T07:35:45;30.23;;;14.93;;
5137;SDS011;53959;53.626;11.410;2023-02-13T07:38:13;26.93;;;14.43;;
5137;SDS011;53959;53.626;11.410;2023-02-13T07:40:39;35.23;;;15.93;;
5137;SDS011;53959;53.626;11.410;2023-02-13T07:43:04;29.67;;;15.87;;
5137;SDS011;53959;53.626;11.410;2023-02-13T07:45:30;25.70;;;14.03;;
5137;SDS011;53959;53.626;11.410;2023-02-13T07:47:55;25.80;;;14.03;;
5137;SDS011;53959;53.626;11.410;2023-02-13T07:50:21;29.50;;;14.50;;
5137;SDS011;53959;53.626;11.410;2023-02-13T07:52:59;26.57;;;14.90;;
5137;SDS011;53959;53.626;11.410;2023-02-13T07:55:29;24.13;;;14.60;;
5137;SDS011;53959;53.626;11.410;2023-02-13T07:57:55;28.13;;;13.03;;
5137;SDS011;53959;53.626;11.410;2023-02-13T08:00:20;25.23;;;14.30;;
5137;SDS011;53959;53.626;11.410;2023-02-13T08:02:46;27.63;;;14.03;;
5137;SDS011;53959;53.626;11.410;2023-02-13T08:05:12;21.77;;;13.93;;
5137;SDS011;53959;53.626;11.410;2023-02-13T08:07:37;33.07;;;14.47;;
5137;SDS011;53959;53.626;11.410;2023-02-13T08:10:05;23.43;;;13.50;;
5137;SDS011;53959;53.626;11.410;2023-02-13T08:12:50;25.60;;;14.97;;
5137;SDS011;53959;53.626;11.410;2023-02-13T08:15:16;26.77;;;13.90;;
5137;SDS011;53959;53.626;11.410;2023-02-13T08:17:41;25.47;;;13.90;;
5137;SDS011;53959;53.626;11.410;2023-02-13T08:20:07;29.03;;;16.40;;
5137;SDS011;53959;53.626;11.410;2023-02-13T08:22:33;27.00;;;14.07;;
5137;SDS011;53959;53.626;11.410;2023-02-13T08:24:58;31.17;;;15.90;;
5137;SDS011;53959;53.626;11.410;2023-02-13T08:27:24;29.20;;;15.87;;
5137;SDS011;53959;53.626;11.410;2023-02-13T08:29:49;31.60;;;14.70;;
5137;SDS011;53959;53.626;11.410;2023-02-13T08:32:15;27.23;;;14.10;;
5137;SDS011;53959;53.626;11.410;2023-02-13T08:34:41;33.90;;;15.70;;
5137;SDS011;53959;53.626;11.410;2023-02-13T08:37:06;27.27;;;15.23;;
5137;SDS011;53959;53.626;11.410;2023-02-13T08:39:32;26.93;;;14.57;;
5137;SDS011;53959;53.626;11.410;2023-02-13T08:41:57;31.13;;;15.77;;
5137;SDS011;53959;53.626;11.410;2023-02-13T08:44:23;35.37;;;14.37;;
5137;SDS011;53959;53.626;11.410;2023-02-13T08:46:48;24.83;;;14.67;;
5137;SDS011;53959;53.626;11.410;2023-02-13T08:49:13;30.13;;;15.70;;
5137;SDS011;53959;53.626;11.410;2023-02-13T08:51:39;24.83;;;15.07;;
5137;SDS011;53959;53.626;11.410;2023-02-13T08:54:04;26.10;;;13.23;;
5137;SDS011;53959;53.626;11.410;2023-02-13T08:56:29;19.00;;;12.47;;
5137;SDS011;53959;53.626;11.410;2023-02-13T08:58:55;18.80;;;12.20;;
5137;SDS011;53959;53.626;11.410;2023-02-13T09:01:20;22.70;;;13.33;;
5137;SDS011;53959;53.626;11.410;2023-02-13T09:03:47;17.83;;;12.83;;
5137;SDS011;53959;53.626;11.410;2023-02-13T09:06:13;23.83;;;14.40;;
5137;SDS011;53959;53.626;11.410;2023-02-13T09:08:38;21.27;;;12.97;;
5137;SDS011;53959;53.626;11.410;2023-02-13T09:11:04;19.17;;;11.83;;
5137;SDS011;53959;53.626;11.410;2023-02-13T09:13:31;19.30;;;11.23;;
5137;SDS011;53959;53.626;11.410;2023-02-13T09:16:07;19.33;;;12.77;;
5137;SDS011;53959;53.626;11.410;2023-02-13T09:18:33;15.53;;;11.03;;
5137;SDS011;53959;53.626;11.410;2023-02-13T09:21:00;19.27;;;11.53;;
5137;SDS011;53959;53.626;11.410;2023-02-13T09:23:31;17.60;;;10.93;;
5137;SDS011;53959;53.626;11.410;2023-02-13T09:25:57;17.60;;;11.03;;
5137;SDS011;53959;53.626;11.410;2023-02-13T09:28:25;17.97;;;12.10;;
5137;SDS011;53959;53.626;11.410;2023-02-13T09:30:50;18.60;;;11.67;;
5137;SDS011;53959;53.626;11.410;2023-02-13T09:33:15;16.23;;;11.13;;
5137;SDS011;53959;53.626;11.410;2023-02-13T09:35:41;16.23;;;11.77;;
5137;SDS011;53959;53.626;11.410;2023-02-13T09:38:07;17.47;;;11.87;;
5137;SDS011;53959;53.626;11.410;2023-02-13T09:40:42;17.53;;;12.40;;
5137;SDS011;53959;53.626;11.410;2023-02-13T09:43:30;17.50;;;11.67;;
5137;SDS011;53959;53.626;11.410;2023-02-13T09:45:58;19.60;;;12.23;;
5137;SDS011;53959;53.626;11.410;2023-02-13T09:48:29;20.00;;;11.50;;
5137;SDS011;53959;53.626;11.410;2023-02-13T09:50:56;14.60;;;10.73;;
5137;SDS011;53959;53.626;11.410;2023-02-13T09:53:23;16.50;;;11.80;;
5137;SDS011;53959;53.626;11.410;2023-02-13T09:58:41;15.83;;;10.67;;
5137;SDS011;53959;53.626;11.410;2023-02-13T10:01:51;16.07;;;11.43;;
5137;SDS011;53959;53.626;11.410;2023-02-13T10:06:45;15.00;;;11.37;;
5137;SDS011;53959;53.626;11.410;2023-02-13T10:14:57;22.67;;;12.73;;
5137;SDS011;53959;53.626;11.410;2023-02-13T10:17:33;16.73;;;10.77;;
5137;SDS011;53959;53.626;11.410;2023-02-13T10:20:01;19.70;;;11.93;;
5137;SDS011;53959;53.626;11.410;2023-02-13T10:22:31;13.40;;;10.03;;
5137;SDS011;53959;53.626;11.410;2023-02-13T10:25:00;11.80;;;10.30;;
5137;SDS011;53959;53.626;11.410;2023-02-13T10:27:33;18.50;;;11.00;;
5137;SDS011;53959;53.626;11.410;2023-02-13T10:32:55;16.57;;;11.77;;
5137;SDS011;53959;53.626;11.410;2023-02-13T10:38:18;15.17;;;11.30;;
5137;SDS011;53959;53.626;11.410;2023-02-13T10:43:54;17.47;;;11.90;;
5137;SDS011;53959;53.626;11.410;2023-02-13T10:52:06;15.00;;;11.63;;
5137;SDS011;53959;53.626;11.410;2023-02-13T10:54:44;15.57;;;12.90;;
5137;SDS011;53959;53.626;11.410;2023-02-13T11:00:06;16.63;;;12.93;;
5137;SDS011;53959;53.626;11.410;2023-02-13T11:02:35;17.20;;;13.47;;
5137;SDS011;53959;53.626;11.410;2023-02-13T11:05:04;16.77;;;12.87;;
5137;SDS011;53959;53.626;11.410;2023-02-13T11:07:37;16.40;;;13.00;;
5137;SDS011;53959;53.626;11.410;2023-02-13T11:10:04;14.77;;;12.60;;
5137;SDS011;53959;53.626;11.410;2023-02-13T11:12:37;17.23;;;13.47;;
5137;SDS011;53959;53.626;11.410;2023-02-13T11:15:04;18.20;;;13.90;;
5137;SDS011;53959;53.626;11.410;2023-02-13T11:17:35;20.83;;;13.47;;
5137;SDS011;53959;53.626;11.410;2023-02-13T11:23:14;18.00;;;13.90;;
5137;SDS011;53959;53.626;11.410;2023-02-13T11:26:06;19.43;;;13.97;;
5137;SDS011;53959;53.626;11.410;2023-02-13T11:29:17;18.80;;;13.97;;
5137;SDS011;53959;53.626;11.410;2023-02-13T11:31:36;23.23;;;14.23;;
5137;SDS011;53959;53.626;11.410;2023-02-13T11:34:21;18.80;;;14.30;;
5137;SDS011;53959;53.626;11.410;2023-02-13T11:36:53;20.93;;;14.77;;
5137;SDS011;53959;53.626;11.410;2023-02-13T11:39:24;19.70;;;13.57;;
5137;SDS011;53959;53.626;11.410;2023-02-13T11:41:50;19.13;;;12.80;;
5137;SDS011;53959;53.626;11.410;2023-02-13T11:44:26;17.03;;;12.57;;
5137;SDS011;53959;53.626;11.410;2023-02-13T11:46:54;26.73;;;13.43;;
5137;SDS011;53959;53.626;11.410;2023-02-13T11:49:22;18.80;;;14.10;;
5137;SDS011;53959;53.626;11.410;2023-02-13T11:51:49;21.77;;;13.77;;
5137;SDS011;53959;53.626;11.410;2023-02-13T11:57:20;22.67;;;14.33;;
5137;SDS011;53959;53.626;11.410;2023-02-13T11:59:48;22.60;;;14.50;;
5137;SDS011;53959;53.626;11.410;2023-02-13T12:02:16;20.90;;;14.33;;
5137;SDS011;53959;53.626;11.410;2023-02-13T12:04:43;22.47;;;14.27;;
5137;SDS011;53959;53.626;11.410;2023-02-13T12:07:19;17.73;;;13.57;;
5137;SDS011;53959;53.626;11.410;2023-02-13T12:10:14;21.43;;;14.20;;
5137;SDS011;53959;53.626;11.410;2023-02-13T12:12:46;23.13;;;15.27;;
5137;SDS011;53959;53.626;11.410;2023-02-13T12:15:25;25.37;;;14.20;;
5137;SDS011;53959;53.626;11.410;2023-02-13T12:18:02;23.03;;;15.10;;
5137;SDS011;53959;53.626;11.410;2023-02-13T12:29:07;31.60;;;16.50;;
5137;SDS011;53959;53.626;11.410;2023-02-13T12:32:03;25.20;;;15.40;;
5137;SDS011;53959;53.626;11.410;2023-02-13T12:34:54;28.43;;;17.60;;
5137;SDS011;53959;53.626;11.410;2023-02-13T12:48:30;24.50;;;15.83;;
5137;SDS011;53959;53.626;11.410;2023-02-13T12:56:42;31.27;;;17.50;;
5137;SDS011;53959;53.626;11.410;2023-02-13T12:59:28;26.80;;;16.93;;
5137;SDS011;53959;53.626;11.410;2023-02-13T13:02:29;31.77;;;18.23;;
5137;SDS011;53959;53.626;11.410;2023-02-13T13:16:05;34.20;;;18.00;;
5137;SDS011;53959;53.626;11.410;2023-02-13T13:21:31;36.30;;;19.53;;
5137;SDS011;53959;53.626;11.410;2023-02-13T13:24:08;31.73;;;18.63;;
5137;SDS011;53959;53.626;11.410;2023-02-13T13:26:40;29.83;;;17.27;;
5137;SDS011;53959;53.626;11.410;2023-02-13T13:29:24;32.90;;;18.33;;
5137;SDS011;53959;53.626;11.410;2023-02-13T13:31:53;33.33;;;17.60;;
5137;SDS011;53959;53.626;11.410;2023-02-13T13:34:22;36.93;;;18.30;;
5137;SDS011;53959;53.626;11.410;2023-02-13T13:36:54;37.07;;;20.30;;
5137;SDS011;53959;53.626;11.410;2023-02-13T13:39:31;35.90;;;19.53;;
5137;SDS011;53959;53.626;11.410;2023-02-13T13:52:08;36.23;;;20.30;;
5137;SDS011;53959;53.626;11.410;2023-02-13T13:54:35;38.60;;;17.90;;
5137;SDS011;53959;53.626;11.410;2023-02-13T13:57:03;32.17;;;17.87;;
5137;SDS011;53959;53.626;11.410;2023-02-13T14:04:59;33.93;;;19.60;;
5137;SDS011;53959;53.626;11.410;2023-02-13T14:07:35;40.60;;;19.37;;
5137;SDS011;53959;53.626;11.410;2023-02-13T14:10:02;35.70;;;19.77;;
5137;SDS011;53959;53.626;11.410;2023-02-13T14:14:56;39.43;;;19.80;;
5137;SDS011;53959;53.626;11.410;2023-02-13T14:23:06;39.53;;;20.70;;
5137;SDS011;53959;53.626;11.410;2023-02-13T14:25:32;44.87;;;20.17;;
5137;SDS011;53959;53.626;11.410;2023-02-13T14:27:59;37.37;;;20.27;;
5137;SDS011;53959;53.626;11.410;2023-02-13T14:33:02;35.40;;;18.70;;
5137;SDS011;53959;53.626;11.410;2023-02-13T14:35:30;34.70;;;18.93;;
5137;SDS011;53959;53.626;11.410;2023-02-13T14:37:58;35.50;;;20.00;;
5137;SDS011;53959;53.626;11.410;2023-02-13T14:42:52;35.40;;;19.83;;
5137;SDS011;53959;53.626;11.410;2023-02-13T14:45:20;31.73;;;16.30;;
5137;SDS011;53959;53.626;11.410;2023-02-13T14:47:48;33.07;;;17.57;;
5137;SDS011;53959;53.626;11.410;2023-02-13T14:50:31;33.60;;;18.67;;
5137;SDS011;53959;53.626;11.410;2023-02-13T14:53:03;34.13;;;18.50;;
5137;SDS011;53959;53.626;11.410;2023-02-13T14:55:34;35.20;;;18.93;;
5137;SDS011;53959;53.626;11.410;2023-02-13T14:58:06;44.00;;;21.83;;
5137;SDS011;53959;53.626;11.410;2023-02-13T15:06:13;45.83;;;20.60;;
5137;SDS011;53959;53.626;11.410;2023-02-13T15:08:47;38.10;;;20.03;;
5137;SDS011;53959;53.626;11.410;2023-02-13T15:11:34;43.60;;;20.93;;
5137;SDS011;53959;53.626;11.410;2023-02-13T15:16:56;45.67;;;19.37;;
5137;SDS011;53959;53.626;11.410;2023-02-13T15:19:33;42.40;;;20.57;;
5137;SDS011;53959;53.626;11.410;2023-02-13T15:22:00;40.90;;;20.70;;
5137;SDS011;53959;53.626;11.410;2023-02-13T15:24:27;43.20;;;19.83;;
5137;SDS011;53959;53.626;11.410;2023-02-13T15:27:03;39.73;;;19.67;;
5137;SDS011;53959;53.626;11.410;2023-02-13T15:29:30;40.97;;;20.60;;
5137;SDS011;53959;53.626;11.410;2023-02-13T15:31:56;41.80;;;20.33;;
5137;SDS011;53959;53.626;11.410;2023-02-13T15:36:48;42.83;;;20.73;;
5137;SDS011;53959;53.626;11.410;2023-02-13T15:39:18;43.77;;;20.50;;
5137;SDS011;53959;53.626;11.410;2023-02-13T15:41:46;43.40;;;20.70;;
5137;SDS011;53959;53.626;11.410;2023-02-13T15:47:45;37.20;;;18.37;;
5137;SDS011;53959;53.626;11.410;2023-02-13T15:49:51;40.93;;;19.97;;
5137;SDS011;53959;53.626;11.410;2023-02-13T15:52:33;42.33;;;20.80;;
5137;SDS011;53959;53.626;11.410;2023-02-13T15:55:01;40.00;;;19.23;;
5137;SDS011;53959;53.626;11.410;2023-02-13T15:57:26;39.47;;;21.00;;
5137;SDS011;53959;53.626;11.410;2023-02-13T15:59:53;42.07;;;19.50;;
5137;SDS011;53959;53.626;11.410;2023-02-13T16:02:23;42.33;;;21.87;;
5137;SDS011;53959;53.626;11.410;2023-02-13T16:04:53;42.47;;;19.80;;
5137;SDS011;53959;53.626;11.410;2023-02-13T16:07:19;40.17;;;19.30;;
5137;SDS011;53959;53.626;11.410;2023-02-13T16:09:45;45.60;;;21.53;;
5137;SDS011;53959;53.626;11.410;2023-02-13T16:12:21;37.57;;;18.97;;
5137;SDS011;53959;53.626;11.410;2023-02-13T16:14:56;42.60;;;19.60;;
5137;SDS011;53959;53.626;11.410;2023-02-13T16:19:59;42.60;;;20.57;;
5137;SDS011;53959;53.626;11.410;2023-02-13T16:27:47;47.10;;;21.20;;
5137;SDS011;53959;53.626;11.410;2023-02-13T16:35:43;43.37;;;19.70;;
5137;SDS011;53959;53.626;11.410;2023-02-13T16:38:30;47.67;;;22.77;;
5137;SDS011;53959;53.626;11.410;2023-02-13T16:40:58;46.50;;;22.70;;
5137;SDS011;53959;53.626;11.410;2023-02-13T16:46:35;44.43;;;21.57;;
5137;SDS011;53959;53.626;11.410;2023-02-13T16:54:14;47.20;;;23.00;;
5137;SDS011;53959;53.626;11.410;2023-02-13T16:56:46;53.70;;;21.17;;
5137;SDS011;53959;53.626;11.410;2023-02-13T17:01:41;48.90;;;21.40;;
5137;SDS011;53959;53.626;11.410;2023-02-13T17:04:17;50.80;;;22.80;;
5137;SDS011;53959;53.626;11.410;2023-02-13T17:06:45;47.30;;;22.37;;
5137;SDS011;53959;53.626;11.410;2023-02-13T17:09:10;49.60;;;22.97;;
5137;SDS011;53959;53.626;11.410;2023-02-13T17:11:35;46.30;;;22.13;;
5137;SDS011;53959;53.626;11.410;2023-02-13T17:14:01;50.90;;;22.00;;
5137;SDS011;53959;53.626;11.410;2023-02-13T17:16:26;56.53;;;22.13;;
5137;SDS011;53959;53.626;11.410;2023-02-13T17:18:52;49.57;;;22.23;;
5137;SDS011;53959;53.626;11.410;2023-02-13T17:21:17;45.03;;;22.87;;
5137;SDS011;53959;53.626;11.410;2023-02-13T17:23:42;45.60;;;21.87;;
5137;SDS011;53959;53.626;11.410;2023-02-13T17:26:08;50.63;;;22.70;;
5137;SDS011;53959;53.626;11.410;2023-02-13T17:28:33;44.93;;;22.63;;
5137;SDS011;53959;53.626;11.410;2023-02-13T17:30:58;52.40;;;23.40;;
5137;SDS011;53959;53.626;11.410;2023-02-13T17:33:25;53.03;;;24.00;;
5137;SDS011;53959;53.626;11.410;2023-02-13T17:35:52;51.07;;;24.27;;
5137;SDS011;53959;53.626;11.410;2023-02-13T17:38:18;49.33;;;21.67;;
5137;SDS011;53959;53.626;11.410;2023-02-13T17:40:44;50.47;;;23.50;;